createdAt,value
2022-08-21T00:00:51.197Z,1010.04
2022-08-21T00:01:51.270Z,1010.02
2022-08-21T00:02:51.311Z,1010.08
2022-08-21T00:03:51.261Z,1010.07
2022-08-21T00:04:57.125Z,1010.06
2022-08-21T00:05:51.302Z,1010.06
2022-08-21T00:06:51.329Z,1010.08
2022-08-21T00:07:51.349Z,1010.07
2022-08-21T00:08:51.369Z,1010.12
2022-08-21T00:09:51.391Z,1010.12
2022-08-21T00:10:51.411Z,1010.06
2022-08-21T00:11:51.433Z,1010.10
2022-08-21T00:12:51.488Z,1010.11
2022-08-21T00:13:51.478Z,1010.07
2022-08-21T00:14:51.496Z,1010.08
2022-08-21T00:15:51.519Z,1010.08
2022-08-21T00:16:51.547Z,1010.08
2022-08-21T00:17:51.561Z,1010.04
2022-08-21T00:18:51.583Z,1010.06
2022-08-21T00:19:51.606Z,1010.01
2022-08-21T00:20:51.625Z,1010.02
2022-08-21T00:21:51.646Z,1009.98
2022-08-21T00:22:51.693Z,1009.97
2022-08-21T00:23:51.689Z,1009.98
2022-08-21T00:24:51.710Z,1009.98
2022-08-21T00:25:51.732Z,1009.98
2022-08-21T00:26:51.754Z,1009.97
2022-08-21T00:27:51.772Z,1009.95
2022-08-21T00:28:51.793Z,1009.92
2022-08-21T00:29:51.815Z,1009.94
2022-08-21T00:30:51.838Z,1009.93
2022-08-21T00:31:51.859Z,1009.92
2022-08-21T00:32:51.959Z,1009.98
2022-08-21T00:33:51.902Z,1009.99
2022-08-21T00:34:51.923Z,1010.02
2022-08-21T00:35:51.945Z,1010.04
2022-08-21T00:36:51.964Z,1010.07
2022-08-21T00:37:51.986Z,1010.06
2022-08-21T00:38:52.008Z,1010.05
2022-08-21T00:39:52.066Z,1010.04
2022-08-21T00:40:52.048Z,1010.07
2022-08-21T00:41:52.074Z,1010.06
2022-08-21T00:42:53.799Z,1010.08
2022-08-21T00:43:52.116Z,1010.09
2022-08-21T00:44:52.135Z,1010.10
2022-08-21T00:45:52.157Z,1010.10
2022-08-21T00:46:52.177Z,1010.11
2022-08-21T00:47:52.198Z,1010.11
2022-08-21T00:48:52.220Z,1010.12
2022-08-21T00:49:52.242Z,1010.13
2022-08-21T00:50:52.262Z,1010.08
2022-08-21T00:51:52.283Z,1010.09
2022-08-21T00:52:52.306Z,1010.08
2022-08-21T00:53:53.713Z,1010.02
2022-08-21T00:54:52.346Z,1010.01
2022-08-21T00:55:52.366Z,1010.00
2022-08-21T00:56:52.389Z,1009.98
2022-08-21T00:57:52.410Z,1009.99
2022-08-21T00:58:55.086Z,1010.01
2022-08-21T00:59:52.450Z,1010.00
2022-08-21T01:00:52.510Z,1009.99
2022-08-21T01:01:52.503Z,1010.00
2022-08-21T01:02:52.515Z,1009.98
2022-08-21T01:03:52.536Z,1009.97
2022-08-21T01:04:52.571Z,1010.04
2022-08-21T01:05:52.577Z,1010.04
2022-08-21T01:06:52.658Z,1010.00
2022-08-21T01:07:52.617Z,1010.06
2022-08-21T01:08:52.647Z,1010.01
2022-08-21T01:09:52.661Z,1009.98
2022-08-21T01:10:54.640Z,1010.01
2022-08-21T01:11:52.707Z,1009.98
2022-08-21T01:12:52.723Z,1010.01
2022-08-21T01:13:52.742Z,1009.98
2022-08-21T01:14:52.766Z,1009.99
2022-08-21T01:15:52.793Z,1010.02
2022-08-21T01:16:52.809Z,1010.03
2022-08-21T01:17:52.828Z,1010.05
2022-08-21T01:18:52.852Z,1010.01
2022-08-21T01:19:52.871Z,1010.01
2022-08-21T01:20:52.890Z,1010.04
2022-08-21T01:21:52.914Z,1010.00
2022-08-21T01:22:52.934Z,1010.05
2022-08-21T01:23:53.007Z,1010.04
2022-08-21T01:24:52.975Z,1010.07
2022-08-21T01:25:52.997Z,1010.04
2022-08-21T01:26:53.019Z,1010.01
2022-08-21T01:27:53.038Z,1010.04
2022-08-21T01:28:53.059Z,1009.98
2022-08-21T01:29:53.080Z,1010.01
2022-08-21T01:30:53.101Z,1010.01
2022-08-21T01:31:53.122Z,1010.01
2022-08-21T01:32:53.141Z,1010.03
2022-08-21T01:33:53.163Z,1010.02
2022-08-21T01:34:53.188Z,1010.00
2022-08-21T01:35:53.202Z,1009.99
2022-08-21T01:36:53.225Z,1010.01
2022-08-21T01:37:53.248Z,1009.95
2022-08-21T01:38:53.267Z,1009.98
2022-08-21T01:39:53.325Z,1010.03
2022-08-21T01:40:53.309Z,1010.05
2022-08-21T01:41:53.329Z,1010.06
2022-08-21T01:42:53.352Z,1010.11
2022-08-21T01:43:53.372Z,1010.10
2022-08-21T01:44:54.411Z,1010.11
2022-08-21T01:45:53.414Z,1010.10
2022-08-21T01:46:53.435Z,1010.11
2022-08-21T01:47:53.459Z,1010.13
2022-08-21T01:48:53.476Z,1010.14
2022-08-21T01:49:53.496Z,1010.13
2022-08-21T01:50:56.981Z,1010.12
2022-08-21T01:51:53.539Z,1010.13
2022-08-21T01:52:53.558Z,1010.12
2022-08-21T01:53:53.587Z,1010.14
2022-08-21T01:54:55.241Z,1010.13
2022-08-21T01:55:53.621Z,1010.11
2022-08-21T01:56:53.642Z,1010.18
2022-08-21T01:57:53.665Z,1010.11
2022-08-21T01:58:53.685Z,1010.15
2022-08-21T01:59:53.723Z,1010.14
2022-08-21T02:00:53.776Z,1010.14
2022-08-21T02:01:53.746Z,1010.16
2022-08-21T02:02:53.811Z,1010.16
2022-08-21T02:03:53.789Z,1010.16
2022-08-21T02:04:53.810Z,1010.15
2022-08-21T02:05:53.830Z,1010.19
2022-08-21T02:06:53.850Z,1010.16
2022-08-21T02:07:53.871Z,1010.16
2022-08-21T02:08:53.893Z,1010.14
2022-08-21T02:09:53.918Z,1010.13
2022-08-21T02:10:53.940Z,1010.14
2022-08-21T02:11:53.957Z,1010.10
2022-08-21T02:12:53.976Z,1010.11
2022-08-21T02:13:53.996Z,1010.09
2022-08-21T02:14:54.017Z,1010.10
2022-08-21T02:15:54.038Z,1010.09
2022-08-21T02:17:05.278Z,1010.11
2022-08-21T02:17:54.079Z,1010.05
2022-08-21T02:18:54.101Z,1010.07
2022-08-21T02:19:54.122Z,1010.07
2022-08-21T02:20:56.287Z,1010.10
2022-08-21T02:21:54.164Z,1010.12
2022-08-21T02:22:54.226Z,1010.10
2022-08-21T02:23:54.204Z,1010.08
2022-08-21T02:24:55.366Z,1010.08
2022-08-21T02:25:54.244Z,1010.11
2022-08-21T02:26:54.269Z,1010.12
2022-08-21T02:27:54.287Z,1010.11
2022-08-21T02:28:54.308Z,1010.06
2022-08-21T02:29:54.327Z,1010.05
2022-08-21T02:30:54.349Z,1010.08
2022-08-21T02:31:54.370Z,1010.06
2022-08-21T02:32:54.423Z,1010.10
2022-08-21T02:33:54.410Z,1010.08
2022-08-21T02:34:54.439Z,1010.08
2022-08-21T02:35:54.467Z,1010.07
2022-08-21T02:36:59.618Z,1010.08
2022-08-21T02:37:54.505Z,1010.10
2022-08-21T02:38:54.518Z,1010.10
2022-08-21T02:39:54.572Z,1010.09
2022-08-21T02:40:54.555Z,1010.07
2022-08-21T02:41:54.576Z,1010.08
2022-08-21T02:42:54.673Z,1010.08
2022-08-21T02:43:54.616Z,1010.13
2022-08-21T02:44:54.635Z,1010.09
2022-08-21T02:45:54.655Z,1010.04
2022-08-21T02:46:54.678Z,1010.07
2022-08-21T02:47:54.700Z,1010.10
2022-08-21T02:48:54.721Z,1010.11
2022-08-21T02:49:54.746Z,1010.10
2022-08-21T02:50:54.760Z,1010.07
2022-08-21T02:51:54.782Z,1010.11
2022-08-21T02:52:55.018Z,1010.09
2022-08-21T02:53:54.826Z,1010.08
2022-08-21T02:54:54.843Z,1010.14
2022-08-21T02:55:54.865Z,1010.11
2022-08-21T02:56:54.884Z,1010.12
2022-08-21T02:57:54.901Z,1010.16
2022-08-21T02:58:54.925Z,1010.17
2022-08-21T02:59:54.944Z,1010.13
2022-08-21T03:00:54.964Z,1010.12
2022-08-21T03:01:55.047Z,1010.11
2022-08-21T03:02:55.045Z,1010.16
2022-08-21T03:03:55.025Z,1010.13
2022-08-21T03:04:55.052Z,1010.12
2022-08-21T03:05:55.064Z,1010.13
2022-08-21T03:06:55.086Z,1010.15
2022-08-21T03:07:55.107Z,1010.13
2022-08-21T03:08:55.126Z,1010.08
2022-08-21T03:09:56.015Z,1010.05
2022-08-21T03:10:55.166Z,1010.09
2022-08-21T03:11:55.189Z,1010.07
2022-08-21T03:12:55.206Z,1010.07
2022-08-21T03:13:55.230Z,1009.99
2022-08-21T03:14:55.249Z,1010.04
2022-08-21T03:15:55.268Z,1010.06
2022-08-21T03:16:55.288Z,1010.03
2022-08-21T03:17:55.310Z,1010.02
2022-08-21T03:18:55.329Z,1010.01
2022-08-21T03:19:55.349Z,1010.07
2022-08-21T03:20:55.370Z,1009.99
2022-08-21T03:21:55.389Z,1010.00
2022-08-21T03:22:55.408Z,1010.01
2022-08-21T03:23:55.430Z,1010.06
2022-08-21T03:24:55.448Z,1010.07
2022-08-21T03:25:55.473Z,1010.06
2022-08-21T03:26:55.491Z,1010.05
2022-08-21T03:27:58.777Z,1010.05
2022-08-21T03:28:55.532Z,1010.08
2022-08-21T03:29:55.551Z,1010.08
2022-08-21T03:30:55.574Z,1010.06
2022-08-21T03:31:55.590Z,1010.08
2022-08-21T03:32:55.610Z,1010.07
2022-08-21T03:33:55.633Z,1010.05
2022-08-21T03:34:55.654Z,1010.05
2022-08-21T03:35:55.673Z,1010.06
2022-08-21T03:36:55.689Z,1010.11
2022-08-21T03:37:55.714Z,1010.07
2022-08-21T03:38:55.733Z,1010.07
2022-08-21T03:39:55.816Z,1010.08
2022-08-21T03:40:55.770Z,1010.07
2022-08-21T03:41:55.790Z,1010.06
2022-08-21T03:42:55.812Z,1010.09
2022-08-21T03:43:55.834Z,1010.06
2022-08-21T03:44:55.852Z,1010.07
2022-08-21T03:45:55.874Z,1010.10
2022-08-21T03:46:55.894Z,1010.09
2022-08-21T03:47:55.913Z,1010.08
2022-08-21T03:48:55.932Z,1010.11
2022-08-21T03:49:55.952Z,1010.09
2022-08-21T03:50:55.975Z,1010.08
2022-08-21T03:51:59.722Z,1010.07
2022-08-21T03:52:56.010Z,1010.03
2022-08-21T03:53:56.033Z,1010.10
2022-08-21T03:54:56.057Z,1010.10
2022-08-21T03:55:56.075Z,1010.10
2022-08-21T03:56:56.095Z,1010.09
2022-08-21T03:57:56.114Z,1010.10
2022-08-21T03:58:56.134Z,1010.08
2022-08-21T03:59:56.156Z,1010.09
2022-08-21T04:00:56.174Z,1010.09
2022-08-21T04:01:56.265Z,1010.15
2022-08-21T04:02:56.210Z,1010.17
2022-08-21T04:03:56.231Z,1010.19
2022-08-21T04:04:56.250Z,1010.19
2022-08-21T04:05:56.271Z,1010.18
2022-08-21T04:06:56.290Z,1010.23
2022-08-21T04:07:56.311Z,1010.24
2022-08-21T04:08:56.343Z,1010.22
2022-08-21T04:09:56.349Z,1010.20
2022-08-21T04:10:56.380Z,1010.17
2022-08-21T04:11:56.396Z,1010.23
2022-08-21T04:12:56.409Z,1010.23
2022-08-21T04:13:56.432Z,1010.24
2022-08-21T04:14:56.451Z,1010.29
2022-08-21T04:15:56.470Z,1010.26
2022-08-21T04:16:56.488Z,1010.34
2022-08-21T04:17:56.508Z,1010.31
2022-08-21T04:18:56.529Z,1010.27
2022-08-21T04:19:56.547Z,1010.30
2022-08-21T04:20:56.566Z,1010.31
2022-08-21T04:21:56.589Z,1010.32
2022-08-21T04:22:56.819Z,1010.37
2022-08-21T04:23:56.679Z,1010.31
2022-08-21T04:24:56.646Z,1010.30
2022-08-21T04:25:56.672Z,1010.30
2022-08-21T04:26:56.688Z,1010.31
2022-08-21T04:27:56.708Z,1010.25
2022-08-21T04:28:56.726Z,1010.24
2022-08-21T04:29:56.750Z,1010.22
2022-08-21T04:30:56.767Z,1010.22
2022-08-21T04:31:56.786Z,1010.23
2022-08-21T04:32:56.933Z,1010.20
2022-08-21T04:33:56.827Z,1010.23
2022-08-21T04:34:56.844Z,1010.20
2022-08-21T04:35:56.864Z,1010.20
2022-08-21T04:36:56.885Z,1010.22
2022-08-21T04:37:56.906Z,1010.26
2022-08-21T04:38:56.925Z,1010.28
2022-08-21T04:39:56.997Z,1010.29
2022-08-21T04:40:56.964Z,1010.34
2022-08-21T04:41:56.984Z,1010.32
2022-08-21T04:42:57.168Z,1010.35
2022-08-21T04:43:57.027Z,1010.32
2022-08-21T04:44:57.045Z,1010.30
2022-08-21T04:45:57.063Z,1010.36
2022-08-21T04:46:57.084Z,1010.33
2022-08-21T04:47:57.109Z,1010.34
2022-08-21T04:48:57.123Z,1010.32
2022-08-21T04:49:57.143Z,1010.32
2022-08-21T04:50:57.163Z,1010.35
2022-08-21T04:51:57.182Z,1010.36
2022-08-21T04:52:57.339Z,1010.33
2022-08-21T04:53:57.226Z,1010.36
2022-08-21T04:54:57.242Z,1010.35
2022-08-21T04:55:57.264Z,1010.36
2022-08-21T04:56:57.286Z,1010.37
2022-08-21T04:57:57.301Z,1010.36
2022-08-21T04:58:57.326Z,1010.40
2022-08-21T04:59:57.344Z,1010.37
2022-08-21T05:00:57.365Z,1010.37
2022-08-21T05:01:57.445Z,1010.40
2022-08-21T05:02:57.637Z,1010.36
2022-08-21T05:03:57.421Z,1010.39
2022-08-21T05:04:57.442Z,1010.38
2022-08-21T05:05:57.460Z,1010.37
2022-08-21T05:06:57.484Z,1010.40
2022-08-21T05:07:57.502Z,1010.37
2022-08-21T05:08:58.019Z,1010.38
2022-08-21T05:09:57.543Z,1010.42
2022-08-21T05:11:00.505Z,1010.38
2022-08-21T05:11:57.582Z,1010.42
2022-08-21T05:12:57.778Z,1010.44
2022-08-21T05:13:57.638Z,1010.43
2022-08-21T05:14:57.646Z,1010.45
2022-08-21T05:15:57.666Z,1010.46
2022-08-21T05:16:57.681Z,1010.50
2022-08-21T05:18:01.013Z,1010.47
2022-08-21T05:18:57.724Z,1010.49
2022-08-21T05:19:57.743Z,1010.47
2022-08-21T05:20:57.762Z,1010.49
2022-08-21T05:21:57.782Z,1010.50
2022-08-21T05:22:57.978Z,1010.50
2022-08-21T05:23:58.126Z,1010.48
2022-08-21T05:24:57.844Z,1010.50
2022-08-21T05:25:57.864Z,1010.51
2022-08-21T05:26:57.886Z,1010.52
2022-08-21T05:27:58.211Z,1010.52
2022-08-21T05:28:57.922Z,1010.53
2022-08-21T05:29:57.947Z,1010.54
2022-08-21T05:30:57.965Z,1010.52
2022-08-21T05:31:57.986Z,1010.47
2022-08-21T05:32:58.209Z,1010.57
2022-08-21T05:33:58.029Z,1010.53
2022-08-21T05:34:58.047Z,1010.55
2022-08-21T05:35:58.068Z,1010.57
2022-08-21T05:36:58.087Z,1010.58
2022-08-21T05:37:58.111Z,1010.58
2022-08-21T05:38:58.128Z,1010.60
2022-08-21T05:40:20.579Z,1010.58
2022-08-21T05:40:58.222Z,1010.64
2022-08-21T05:41:58.188Z,1010.61
2022-08-21T05:42:58.383Z,1010.59
2022-08-21T05:43:58.233Z,1010.64
2022-08-21T05:44:58.251Z,1010.63
2022-08-21T05:45:58.272Z,1010.66
2022-08-21T05:46:58.332Z,1010.64
2022-08-21T05:47:58.330Z,1010.69
2022-08-21T05:48:58.333Z,1010.69
2022-08-21T05:49:58.353Z,1010.75
2022-08-21T05:50:58.384Z,1010.75
2022-08-21T05:51:58.397Z,1010.72
2022-08-21T05:52:58.601Z,1010.74
2022-08-21T05:53:58.437Z,1010.77
2022-08-21T05:54:58.459Z,1010.77
2022-08-21T05:55:58.480Z,1010.76
2022-08-21T05:56:58.498Z,1010.77
2022-08-21T05:57:58.525Z,1010.76
2022-08-21T05:58:58.542Z,1010.77
2022-08-21T05:59:58.563Z,1010.77
2022-08-21T06:00:58.583Z,1010.74
2022-08-21T06:02:01.213Z,1010.74
2022-08-21T06:02:58.774Z,1010.74
2022-08-21T06:03:58.645Z,1010.80
2022-08-21T06:04:58.668Z,1010.78
2022-08-21T06:05:58.688Z,1010.78
2022-08-21T06:06:58.710Z,1010.84
2022-08-21T06:07:58.732Z,1010.81
2022-08-21T06:08:58.753Z,1010.82
2022-08-21T06:09:58.771Z,1010.81
2022-08-21T06:10:58.792Z,1010.82
2022-08-21T06:11:58.814Z,1010.78
2022-08-21T06:12:58.987Z,1010.81
2022-08-21T06:13:58.856Z,1010.79
2022-08-21T06:14:58.878Z,1010.76
2022-08-21T06:15:58.898Z,1010.74
2022-08-21T06:16:58.919Z,1010.74
2022-08-21T06:17:58.939Z,1010.75
2022-08-21T06:19:02.641Z,1010.75
2022-08-21T06:19:58.982Z,1010.75
2022-08-21T06:20:59.005Z,1010.76
2022-08-21T06:21:59.025Z,1010.76
2022-08-21T06:22:59.161Z,1010.78
2022-08-21T06:23:59.069Z,1010.78
2022-08-21T06:24:59.091Z,1010.78
2022-08-21T06:25:59.111Z,1010.80
2022-08-21T06:26:59.131Z,1010.79
2022-08-21T06:27:59.153Z,1010.81
2022-08-21T06:28:59.175Z,1010.79
2022-08-21T06:29:59.194Z,1010.79
2022-08-21T06:30:59.216Z,1010.81
2022-08-21T06:31:59.252Z,1010.83
2022-08-21T06:32:59.449Z,1010.81
2022-08-21T06:33:59.282Z,1010.79
2022-08-21T06:34:59.302Z,1010.83
2022-08-21T06:35:59.323Z,1010.83
2022-08-21T06:36:59.344Z,1010.84
2022-08-21T06:37:59.366Z,1010.85
2022-08-21T06:38:59.387Z,1010.87
2022-08-21T06:39:59.460Z,1010.86
2022-08-21T06:40:59.429Z,1010.87
2022-08-21T06:41:59.454Z,1010.89
2022-08-21T06:42:59.591Z,1010.87
2022-08-21T06:43:59.495Z,1010.89
2022-08-21T06:44:59.519Z,1010.89
2022-08-21T06:45:59.539Z,1010.94
2022-08-21T06:46:59.560Z,1010.90
2022-08-21T06:47:59.583Z,1010.94
2022-08-21T06:48:59.602Z,1010.96
2022-08-21T06:49:59.625Z,1010.95
2022-08-21T06:50:59.648Z,1010.91
2022-08-21T06:51:59.670Z,1010.93
2022-08-21T06:52:59.879Z,1010.92
2022-08-21T06:53:59.715Z,1010.91
2022-08-21T06:54:59.734Z,1010.93
2022-08-21T06:55:59.759Z,1010.94
2022-08-21T06:56:59.780Z,1010.93
2022-08-21T06:57:59.798Z,1010.92
2022-08-21T06:58:59.820Z,1010.90
2022-08-21T06:59:59.845Z,1010.92
2022-08-21T07:01:01.200Z,1010.91
2022-08-21T07:01:59.961Z,1010.90
2022-08-21T07:03:00.168Z,1010.90
2022-08-21T07:03:59.932Z,1010.89
2022-08-21T07:04:59.953Z,1010.90
2022-08-21T07:05:59.977Z,1010.92
2022-08-21T07:07:00.000Z,1010.94
2022-08-21T07:08:00.025Z,1010.88
2022-08-21T07:09:00.057Z,1010.88
2022-08-21T07:10:00.068Z,1010.91
2022-08-21T07:11:00.091Z,1010.93
2022-08-21T07:12:00.116Z,1010.87
2022-08-21T07:13:01.540Z,1010.83
2022-08-21T07:14:00.155Z,1010.80
2022-08-21T07:15:00.179Z,1010.81
2022-08-21T07:16:03.878Z,1010.83
2022-08-21T07:17:00.223Z,1010.81
2022-08-21T07:18:00.251Z,1010.79
2022-08-21T07:19:00.278Z,1010.85
2022-08-21T07:20:00.291Z,1010.82
2022-08-21T07:21:00.325Z,1010.82
2022-08-21T07:22:00.354Z,1010.80
2022-08-21T07:23:00.523Z,1010.80
2022-08-21T07:24:00.384Z,1010.80
2022-08-21T07:25:00.409Z,1010.84
2022-08-21T07:26:00.430Z,1010.80
2022-08-21T07:27:00.453Z,1010.74
2022-08-21T07:28:00.477Z,1010.75
2022-08-21T07:29:00.501Z,1010.79
2022-08-21T07:30:00.526Z,1010.80
2022-08-21T07:31:00.549Z,1010.79
2022-08-21T07:32:00.571Z,1010.80
2022-08-21T07:33:00.826Z,1010.81
2022-08-21T07:34:00.617Z,1010.77
2022-08-21T07:35:00.640Z,1010.78
2022-08-21T07:36:00.664Z,1010.77
2022-08-21T07:37:00.687Z,1010.79
2022-08-21T07:38:00.712Z,1010.76
2022-08-21T07:39:00.736Z,1010.76
2022-08-21T07:40:00.801Z,1010.77
2022-08-21T07:41:00.783Z,1010.73
2022-08-21T07:42:03.916Z,1010.76
2022-08-21T07:43:00.908Z,1010.78
2022-08-21T07:44:00.856Z,1010.78
2022-08-21T07:45:00.880Z,1010.80
2022-08-21T07:46:00.902Z,1010.83
2022-08-21T07:47:00.928Z,1010.84
2022-08-21T07:48:00.953Z,1010.84
2022-08-21T07:49:00.973Z,1010.84
2022-08-21T07:50:00.999Z,1010.86
2022-08-21T07:51:01.026Z,1010.83
2022-08-21T07:52:01.051Z,1010.86
2022-08-21T07:53:01.212Z,1010.86
2022-08-21T07:54:01.099Z,1010.84
2022-08-21T07:55:05.553Z,1010.83
2022-08-21T07:56:01.145Z,1010.83
2022-08-21T07:57:01.168Z,1010.81
2022-08-21T07:58:01.193Z,1010.81
2022-08-21T07:59:01.219Z,1010.80
2022-08-21T08:00:01.246Z,1010.83
2022-08-21T08:01:01.324Z,1010.81
2022-08-21T08:02:01.296Z,1010.80
2022-08-21T08:03:01.461Z,1010.80
2022-08-21T08:04:01.346Z,1010.80
2022-08-21T08:05:01.378Z,1010.82
2022-08-21T08:06:01.395Z,1010.77
2022-08-21T08:07:01.417Z,1010.80
2022-08-21T08:08:01.440Z,1010.75
2022-08-21T08:09:01.465Z,1010.75
2022-08-21T08:10:01.488Z,1010.70
2022-08-21T08:11:01.515Z,1010.71
2022-08-21T08:12:01.538Z,1010.74
2022-08-21T08:13:01.820Z,1010.70
2022-08-21T08:14:01.588Z,1010.66
2022-08-21T08:15:01.614Z,1010.68
2022-08-21T08:16:01.636Z,1010.68
2022-08-21T08:17:01.663Z,1010.70
2022-08-21T08:18:01.687Z,1010.71
2022-08-21T08:19:01.711Z,1010.69
2022-08-21T08:20:01.732Z,1010.67
2022-08-21T08:21:01.761Z,1010.67
2022-08-21T08:22:01.782Z,1010.68
2022-08-21T08:23:02.001Z,1010.68
2022-08-21T08:24:19.216Z,1010.66
2022-08-21T08:25:03.544Z,1010.67
2022-08-21T08:26:01.880Z,1010.72
2022-08-21T08:27:01.905Z,1010.69
2022-08-21T08:28:01.927Z,1010.72
2022-08-21T08:29:01.953Z,1010.69
2022-08-21T08:30:01.977Z,1010.75
2022-08-21T08:31:02.001Z,1010.76
2022-08-21T08:32:02.027Z,1010.79
2022-08-21T08:33:02.050Z,1010.75
2022-08-21T08:34:02.073Z,1010.76
2022-08-21T08:35:02.097Z,1010.77
2022-08-21T08:36:06.402Z,1010.81
2022-08-21T08:37:02.145Z,1010.79
2022-08-21T08:38:02.170Z,1010.80
2022-08-21T08:39:02.205Z,1010.80
2022-08-21T08:40:04.426Z,1010.81
2022-08-21T08:41:02.244Z,1010.85
2022-08-21T08:42:02.280Z,1010.86
2022-08-21T08:43:02.291Z,1010.89
2022-08-21T08:44:02.314Z,1010.90
2022-08-21T08:45:02.348Z,1010.95
2022-08-21T08:46:02.362Z,1010.94
2022-08-21T08:47:02.388Z,1010.94
2022-08-21T08:48:02.414Z,1010.97
2022-08-21T08:49:02.437Z,1010.95
2022-08-21T08:50:02.471Z,1010.89
2022-08-21T08:51:02.483Z,1010.90
2022-08-21T08:52:02.510Z,1010.90
2022-08-21T08:53:02.533Z,1010.89
2022-08-21T08:54:02.555Z,1010.89
2022-08-21T08:55:02.582Z,1010.89
2022-08-21T08:56:02.604Z,1010.89
2022-08-21T08:57:02.629Z,1010.87
2022-08-21T08:58:02.652Z,1010.82
2022-08-21T08:59:02.682Z,1010.80
2022-08-21T09:00:02.723Z,1010.76
2022-08-21T09:01:02.776Z,1010.79
2022-08-21T09:02:02.753Z,1010.81
2022-08-21T09:03:02.775Z,1010.75
2022-08-21T09:04:02.797Z,1010.74
2022-08-21T09:05:02.842Z,1010.77
2022-08-21T09:06:02.864Z,1010.76
2022-08-21T09:07:02.871Z,1010.78
2022-08-21T09:08:02.914Z,1010.79
2022-08-21T09:09:02.919Z,1010.75
2022-08-21T09:10:02.993Z,1010.74
2022-08-21T09:11:02.968Z,1010.78
2022-08-21T09:12:02.994Z,1010.81
2022-08-21T09:13:03.017Z,1010.77
2022-08-21T09:14:03.041Z,1010.80
2022-08-21T09:15:03.068Z,1010.85
2022-08-21T09:16:03.090Z,1010.83
2022-08-21T09:17:03.114Z,1010.82
2022-08-21T09:18:07.699Z,1010.90
2022-08-21T09:19:03.166Z,1010.86
2022-08-21T09:20:03.191Z,1010.89
2022-08-21T09:21:03.213Z,1010.91
2022-08-21T09:22:03.240Z,1010.92
2022-08-21T09:23:03.263Z,1010.87
2022-08-21T09:24:03.288Z,1010.91
2022-08-21T09:25:03.315Z,1010.90
2022-08-21T09:26:03.337Z,1010.89
2022-08-21T09:27:03.363Z,1010.87
2022-08-21T09:28:03.387Z,1010.88
2022-08-21T09:29:03.419Z,1010.80
2022-08-21T09:30:03.441Z,1010.86
2022-08-21T09:31:03.460Z,1010.80
2022-08-21T09:32:03.487Z,1010.81
2022-08-21T09:33:03.511Z,1010.82
2022-08-21T09:34:03.536Z,1010.82
2022-08-21T09:35:03.561Z,1010.79
2022-08-21T09:36:03.587Z,1010.81
2022-08-21T09:37:03.616Z,1010.78
2022-08-21T09:38:03.633Z,1010.82
2022-08-21T09:39:03.660Z,1010.78
2022-08-21T09:40:03.730Z,1010.77
2022-08-21T09:41:03.722Z,1010.79
2022-08-21T09:42:03.738Z,1010.78
2022-08-21T09:43:03.761Z,1010.80
2022-08-21T09:44:03.786Z,1010.80
2022-08-21T09:45:03.810Z,1010.77
2022-08-21T09:46:03.834Z,1010.76
2022-08-21T09:47:03.859Z,1010.78
2022-08-21T09:48:03.888Z,1010.77
2022-08-21T09:49:03.910Z,1010.76
2022-08-21T09:50:03.937Z,1010.79
2022-08-21T09:51:03.962Z,1010.79
2022-08-21T09:52:03.987Z,1010.71
2022-08-21T09:53:04.013Z,1010.78
2022-08-21T09:54:04.047Z,1010.76
2022-08-21T09:55:04.065Z,1010.81
2022-08-21T09:56:04.089Z,1010.78
2022-08-21T09:57:04.112Z,1010.80
2022-08-21T09:58:04.141Z,1010.82
2022-08-21T09:59:04.173Z,1010.81
2022-08-21T10:00:04.192Z,1010.81
2022-08-21T10:01:04.254Z,1010.77
2022-08-21T10:02:04.240Z,1010.81
2022-08-21T10:03:04.267Z,1010.79
2022-08-21T10:04:04.295Z,1010.82
2022-08-21T10:05:04.320Z,1010.79
2022-08-21T10:06:04.344Z,1010.78
2022-08-21T10:07:04.372Z,1010.79
2022-08-21T10:08:04.396Z,1010.77
2022-08-21T10:09:04.422Z,1010.80
2022-08-21T10:10:04.448Z,1010.78
2022-08-21T10:11:04.482Z,1010.78
2022-08-21T10:12:04.519Z,1010.81
2022-08-21T10:13:04.524Z,1010.86
2022-08-21T10:14:04.551Z,1010.81
2022-08-21T10:15:08.445Z,1010.85
2022-08-21T10:16:04.603Z,1010.83
2022-08-21T10:17:04.637Z,1010.84
2022-08-21T10:18:04.654Z,1010.85
2022-08-21T10:19:04.681Z,1010.75
2022-08-21T10:20:04.709Z,1010.75
2022-08-21T10:21:04.732Z,1010.78
2022-08-21T10:22:04.764Z,1010.83
2022-08-21T10:23:04.785Z,1010.80
2022-08-21T10:24:04.816Z,1010.89
2022-08-21T10:25:04.837Z,1010.82
2022-08-21T10:26:12.921Z,1010.81
2022-08-21T10:27:04.893Z,1010.80
2022-08-21T10:28:04.917Z,1010.79
2022-08-21T10:29:04.946Z,1010.87
2022-08-21T10:30:04.974Z,1010.81
2022-08-21T10:31:05.003Z,1010.78
2022-08-21T10:32:05.030Z,1010.82
2022-08-21T10:33:05.055Z,1010.85
2022-08-21T10:34:05.085Z,1010.80
2022-08-21T10:35:05.108Z,1010.77
2022-08-21T10:36:05.136Z,1010.79
2022-08-21T10:37:10.976Z,1010.83
2022-08-21T10:38:05.196Z,1010.82
2022-08-21T10:39:26.058Z,1010.79
2022-08-21T10:40:05.279Z,1010.79
2022-08-21T10:41:05.272Z,1010.75
2022-08-21T10:42:05.298Z,1010.76
2022-08-21T10:43:05.327Z,1010.76
2022-08-21T10:44:05.354Z,1010.73
2022-08-21T10:45:05.381Z,1010.70
2022-08-21T10:46:05.412Z,1010.69
2022-08-21T10:47:05.438Z,1010.68
2022-08-21T10:48:05.466Z,1010.75
2022-08-21T10:49:05.491Z,1010.68
2022-08-21T10:50:05.524Z,1010.71
2022-08-21T10:51:05.547Z,1010.75
2022-08-21T10:52:05.578Z,1010.75
2022-08-21T10:53:05.602Z,1010.77
2022-08-21T10:54:05.633Z,1010.82
2022-08-21T10:55:05.659Z,1010.67
2022-08-21T10:56:05.687Z,1010.76
2022-08-21T10:57:05.716Z,1010.81
2022-08-21T10:58:05.743Z,1010.81
2022-08-21T10:59:05.773Z,1010.78
2022-08-21T11:00:05.804Z,1010.81
2022-08-21T11:01:05.995Z,1010.79
2022-08-21T11:02:05.858Z,1010.71
2022-08-21T11:03:05.889Z,1010.69
2022-08-21T11:04:05.919Z,1010.71
2022-08-21T11:05:05.950Z,1010.64
2022-08-21T11:06:05.979Z,1010.67
2022-08-21T11:07:06.010Z,1010.65
2022-08-21T11:08:06.043Z,1010.72
2022-08-21T11:09:06.079Z,1010.72
2022-08-21T11:10:06.115Z,1010.73
2022-08-21T11:11:08.696Z,1010.69
2022-08-21T11:12:10.667Z,1010.64
2022-08-21T11:13:06.193Z,1010.60
2022-08-21T11:14:06.230Z,1010.58
2022-08-21T11:15:06.259Z,1010.56
2022-08-21T11:16:06.299Z,1010.56
2022-08-21T11:17:06.322Z,1010.59
2022-08-21T11:18:06.367Z,1010.57
2022-08-21T11:19:06.386Z,1010.63
2022-08-21T11:20:06.417Z,1010.57
2022-08-21T11:21:06.443Z,1010.58
2022-08-21T11:22:06.488Z,1010.57
2022-08-21T11:23:06.813Z,1010.53
2022-08-21T11:24:06.541Z,1010.52
2022-08-21T11:25:06.581Z,1010.47
2022-08-21T11:26:06.604Z,1010.56
2022-08-21T11:27:06.644Z,1010.61
2022-08-21T11:28:08.774Z,1010.56
2022-08-21T11:29:06.700Z,1010.58
2022-08-21T11:30:06.735Z,1010.63
2022-08-21T11:31:06.786Z,1010.62
2022-08-21T11:32:06.792Z,1010.56
2022-08-21T11:33:06.824Z,1010.53
2022-08-21T11:34:06.859Z,1010.60
2022-08-21T11:35:06.898Z,1010.62
2022-08-21T11:36:06.923Z,1010.69
2022-08-21T11:37:06.953Z,1010.58
2022-08-21T11:38:06.986Z,1010.55
2022-08-21T11:39:07.018Z,1010.50
2022-08-21T11:40:07.103Z,1010.54
2022-08-21T11:41:07.083Z,1010.68
2022-08-21T11:42:09.055Z,1010.63
2022-08-21T11:43:07.148Z,1010.62
2022-08-21T11:44:07.179Z,1010.64
2022-08-21T11:45:07.210Z,1010.51
2022-08-21T11:46:07.244Z,1010.51
2022-08-21T11:47:07.274Z,1010.50
2022-08-21T11:48:07.309Z,1010.54
2022-08-21T11:49:07.339Z,1010.62
2022-08-21T11:50:29.787Z,1010.59
2022-08-21T11:51:07.404Z,1010.56
2022-08-21T11:52:07.437Z,1010.55
2022-08-21T11:53:07.463Z,1010.60
2022-08-21T11:54:07.580Z,1010.60
2022-08-21T11:55:07.527Z,1010.59
2022-08-21T11:56:07.562Z,1010.64
2022-08-21T11:57:07.594Z,1010.63
2022-08-21T11:58:07.624Z,1010.59
2022-08-21T11:59:07.654Z,1010.57
2022-08-21T12:00:07.738Z,1010.60
2022-08-21T12:01:07.717Z,1010.62
2022-08-21T12:02:07.782Z,1010.58
2022-08-21T12:03:07.780Z,1010.59
2022-08-21T12:04:07.816Z,1010.56
2022-08-21T12:05:08.882Z,1010.54
2022-08-21T12:06:07.878Z,1010.51